sensor_id;sensor_type;location;lat;lon;timestamp;temperature;humidity
14049;DHT22;7099;53.922;10.728;2023-09-12T00:02:52;20.30;90.10
14049;DHT22;7099;53.922;10.728;2023-09-12T00:06:57;20.30;90.30
14049;DHT22;7099;53.922;10.728;2023-09-12T00:15:11;20.70;90.10
14049;DHT22;7099;53.922;10.728;2023-09-12T00:19:17;20.90;89.80
14049;DHT22;7099;53.922;10.728;2023-09-12T00:23:23;21.00;89.40
14049;DHT22;7099;53.922;10.728;2023-09-12T00:27:28;21.10;89.20
14049;DHT22;7099;53.922;10.728;2023-09-12T00:31:34;21.00;89.20
14049;DHT22;7099;53.922;10.728;2023-09-12T00:35:40;21.10;89.30
14049;DHT22;7099;53.922;10.728;2023-09-12T00:39:45;21.10;89.70
14049;DHT22;7099;53.922;10.728;2023-09-12T00:43:52;21.10;89.10
14049;DHT22;7099;53.922;10.728;2023-09-12T00:47:58;21.10;89.20
14049;DHT22;7099;53.922;10.728;2023-09-12T00:52:05;21.10;89.70
14049;DHT22;7099;53.922;10.728;2023-09-12T00:56:11;21.10;88.50
14049;DHT22;7099;53.922;10.728;2023-09-12T01:00:17;21.00;89.10
14049;DHT22;7099;53.922;10.728;2023-09-12T01:04:23;20.90;90.00
14049;DHT22;7099;53.922;10.728;2023-09-12T01:08:39;21.00;89.90
14049;DHT22;7099;53.922;10.728;2023-09-12T01:12:45;21.00;89.90
14049;DHT22;7099;53.922;10.728;2023-09-12T01:16:51;21.00;90.00
14049;DHT22;7099;53.922;10.728;2023-09-12T01:25:34;21.00;90.00
14049;DHT22;7099;53.922;10.728;2023-09-12T01:29:51;21.00;90.00
14049;DHT22;7099;53.922;10.728;2023-09-12T01:34:09;21.00;90.00
14049;DHT22;7099;53.922;10.728;2023-09-12T01:38:15;21.00;89.80
14049;DHT22;7099;53.922;10.728;2023-09-12T01:42:21;21.10;90.00
14049;DHT22;7099;53.922;10.728;2023-09-12T01:46:33;21.10;90.20
14049;DHT22;7099;53.922;10.728;2023-09-12T01:50:39;21.10;90.20
14049;DHT22;7099;53.922;10.728;2023-09-12T01:54:45;21.10;90.10
14049;DHT22;7099;53.922;10.728;2023-09-12T01:58:52;21.10;90.00
14049;DHT22;7099;53.922;10.728;2023-09-12T02:02:57;21.10;90.10
14049;DHT22;7099;53.922;10.728;2023-09-12T02:07:03;21.10;90.20
14049;DHT22;7099;53.922;10.728;2023-09-12T02:11:09;21.10;90.10
14049;DHT22;7099;53.922;10.728;2023-09-12T02:15:14;21.20;90.00
14049;DHT22;7099;53.922;10.728;2023-09-12T02:19:20;21.20;89.60
14049;DHT22;7099;53.922;10.728;2023-09-12T02:23:26;21.20;89.60
14049;DHT22;7099;53.922;10.728;2023-09-12T02:27:31;21.20;89.90
14049;DHT22;7099;53.922;10.728;2023-09-12T02:31:37;21.10;89.20
14049;DHT22;7099;53.922;10.728;2023-09-12T02:35:42;21.20;89.10
14049;DHT22;7099;53.922;10.728;2023-09-12T02:39:48;21.10;89.00
14049;DHT22;7099;53.922;10.728;2023-09-12T02:43:53;21.10;89.40
14049;DHT22;7099;53.922;10.728;2023-09-12T02:47:59;21.00;90.00
14049;DHT22;7099;53.922;10.728;2023-09-12T02:52:05;20.90;90.20
14049;DHT22;7099;53.922;10.728;2023-09-12T02:56:10;20.90;90.60
14049;DHT22;7099;53.922;10.728;2023-09-12T03:00:16;20.80;90.80
14049;DHT22;7099;53.922;10.728;2023-09-12T03:04:25;20.70;91.00
14049;DHT22;7099;53.922;10.728;2023-09-12T03:08:32;20.70;91.20
14049;DHT22;7099;53.922;10.728;2023-09-12T03:12:38;20.70;91.20
14049;DHT22;7099;53.922;10.728;2023-09-12T03:16:44;20.80;91.30
14049;DHT22;7099;53.922;10.728;2023-09-12T03:20:49;20.80;91.30
14049;DHT22;7099;53.922;10.728;2023-09-12T03:24:55;20.80;91.40
14049;DHT22;7099;53.922;10.728;2023-09-12T03:29:01;20.80;91.30
14049;DHT22;7099;53.922;10.728;2023-09-12T03:33:07;20.80;91.20
14049;DHT22;7099;53.922;10.728;2023-09-12T03:37:13;20.90;91.10
14049;DHT22;7099;53.922;10.728;2023-09-12T03:41:18;20.90;91.10
14049;DHT22;7099;53.922;10.728;2023-09-12T03:45:24;20.80;91.30
14049;DHT22;7099;53.922;10.728;2023-09-12T03:49:30;20.80;91.40
14049;DHT22;7099;53.922;10.728;2023-09-12T03:53:35;20.80;91.60
14049;DHT22;7099;53.922;10.728;2023-09-12T03:57:41;20.80;91.60
14049;DHT22;7099;53.922;10.728;2023-09-12T04:01:47;20.90;91.60
14049;DHT22;7099;53.922;10.728;2023-09-12T04:05:53;20.80;91.60
14049;DHT22;7099;53.922;10.728;2023-09-12T04:09:59;20.90;91.60
14049;DHT22;7099;53.922;10.728;2023-09-12T04:14:04;20.90;91.60
14049;DHT22;7099;53.922;10.728;2023-09-12T04:18:10;20.90;91.70
14049;DHT22;7099;53.922;10.728;2023-09-12T04:22:15;20.90;91.90
14049;DHT22;7099;53.922;10.728;2023-09-12T04:26:21;20.90;92.00
14049;DHT22;7099;53.922;10.728;2023-09-12T04:30:27;20.80;92.10
14049;DHT22;7099;53.922;10.728;2023-09-12T04:34:33;20.90;92.40
14049;DHT22;7099;53.922;10.728;2023-09-12T04:38:38;20.90;92.40
14049;DHT22;7099;53.922;10.728;2023-09-12T04:42:44;21.00;92.20
14049;DHT22;7099;53.922;10.728;2023-09-12T04:46:50;21.00;91.90
14049;DHT22;7099;53.922;10.728;2023-09-12T04:50:55;21.10;92.20
14049;DHT22;7099;53.922;10.728;2023-09-12T04:55:01;21.10;91.90
14049;DHT22;7099;53.922;10.728;2023-09-12T04:59:09;21.20;91.70
14049;DHT22;7099;53.922;10.728;2023-09-12T05:03:14;21.20;91.80
14049;DHT22;7099;53.922;10.728;2023-09-12T05:07:20;21.20;91.60
14049;DHT22;7099;53.922;10.728;2023-09-12T05:11:25;21.20;91.60
14049;DHT22;7099;53.922;10.728;2023-09-12T05:15:31;21.30;91.70
14049;DHT22;7099;53.922;10.728;2023-09-12T05:19:36;21.30;91.50
14049;DHT22;7099;53.922;10.728;2023-09-12T05:23:42;21.30;91.50
14049;DHT22;7099;53.922;10.728;2023-09-12T05:27:47;21.40;91.60
14049;DHT22;7099;53.922;10.728;2023-09-12T05:31:53;21.40;91.60
14049;DHT22;7099;53.922;10.728;2023-09-12T05:35:59;21.40;91.40
14049;DHT22;7099;53.922;10.728;2023-09-12T05:40:05;21.40;91.30
14049;DHT22;7099;53.922;10.728;2023-09-12T05:44:11;21.40;91.50
14049;DHT22;7099;53.922;10.728;2023-09-12T05:48:22;21.50;91.50
14049;DHT22;7099;53.922;10.728;2023-09-12T05:52:28;21.40;91.50
14049;DHT22;7099;53.922;10.728;2023-09-12T05:56:34;21.40;91.40
14049;DHT22;7099;53.922;10.728;2023-09-12T06:00:40;21.50;91.50
14049;DHT22;7099;53.922;10.728;2023-09-12T06:04:45;21.50;91.40
14049;DHT22;7099;53.922;10.728;2023-09-12T06:08:51;21.50;91.60
14049;DHT22;7099;53.922;10.728;2023-09-12T06:12:58;21.50;91.60
14049;DHT22;7099;53.922;10.728;2023-09-12T06:17:04;21.50;91.70
14049;DHT22;7099;53.922;10.728;2023-09-12T06:21:10;21.40;91.70
14049;DHT22;7099;53.922;10.728;2023-09-12T06:25:15;21.40;91.80
14049;DHT22;7099;53.922;10.728;2023-09-12T06:29:21;21.40;91.90
14049;DHT22;7099;53.922;10.728;2023-09-12T06:33:26;21.50;91.90
14049;DHT22;7099;53.922;10.728;2023-09-12T06:37:32;21.50;91.70
14049;DHT22;7099;53.922;10.728;2023-09-12T06:41:38;21.50;91.70
14049;DHT22;7099;53.922;10.728;2023-09-12T06:45:45;21.50;91.80
14049;DHT22;7099;53.922;10.728;2023-09-12T06:49:51;21.60;92.10
14049;DHT22;7099;53.922;10.728;2023-09-12T06:54:00;21.60;91.70
14049;DHT22;7099;53.922;10.728;2023-09-12T06:58:06;21.60;91.80
14049;DHT22;7099;53.922;10.728;2023-09-12T07:02:12;21.60;92.10
14049;DHT22;7099;53.922;10.728;2023-09-12T07:06:18;21.70;91.80
14049;DHT22;7099;53.922;10.728;2023-09-12T07:10:24;21.70;92.10
14049;DHT22;7099;53.922;10.728;2023-09-12T07:14:32;21.80;91.80
14049;DHT22;7099;53.922;10.728;2023-09-12T07:18:37;21.80;92.00
14049;DHT22;7099;53.922;10.728;2023-09-12T07:22:43;21.80;91.80
14049;DHT22;7099;53.922;10.728;2023-09-12T07:26:49;21.90;91.90
14049;DHT22;7099;53.922;10.728;2023-09-12T07:30:55;21.90;92.00
14049;DHT22;7099;53.922;10.728;2023-09-12T07:35:01;21.90;91.90
14049;DHT22;7099;53.922;10.728;2023-09-12T07:39:06;22.00;91.70
14049;DHT22;7099;53.922;10.728;2023-09-12T07:43:12;22.00;92.00
14049;DHT22;7099;53.922;10.728;2023-09-12T07:47:18;22.10;92.10
14049;DHT22;7099;53.922;10.728;2023-09-12T07:51:24;22.10;92.10
14049;DHT22;7099;53.922;10.728;2023-09-12T07:55:30;22.10;91.70
14049;DHT22;7099;53.922;10.728;2023-09-12T07:59:41;22.20;91.40
14049;DHT22;7099;53.922;10.728;2023-09-12T08:03:46;22.20;91.20
14049;DHT22;7099;53.922;10.728;2023-09-12T08:07:53;22.20;91.20
14049;DHT22;7099;53.922;10.728;2023-09-12T08:11:58;22.20;91.30
14049;DHT22;7099;53.922;10.728;2023-09-12T08:16:04;22.30;91.30
14049;DHT22;7099;53.922;10.728;2023-09-12T08:20:10;22.40;91.60
14049;DHT22;7099;53.922;10.728;2023-09-12T08:24:15;22.40;91.30
14049;DHT22;7099;53.922;10.728;2023-09-12T08:28:21;22.50;91.00
14049;DHT22;7099;53.922;10.728;2023-09-12T08:32:26;22.50;91.10
14049;DHT22;7099;53.922;10.728;2023-09-12T08:36:32;22.60;90.90
14049;DHT22;7099;53.922;10.728;2023-09-12T08:40:38;22.60;91.10
14049;DHT22;7099;53.922;10.728;2023-09-12T08:44:43;22.70;91.20
14049;DHT22;7099;53.922;10.728;2023-09-12T08:48:49;22.70;91.20
14049;DHT22;7099;53.922;10.728;2023-09-12T08:52:56;22.80;90.80
14049;DHT22;7099;53.922;10.728;2023-09-12T08:57:12;22.80;90.40
14049;DHT22;7099;53.922;10.728;2023-09-12T09:01:19;22.90;90.30
14049;DHT22;7099;53.922;10.728;2023-09-12T09:05:27;22.90;89.80
14049;DHT22;7099;53.922;10.728;2023-09-12T09:09:34;22.90;90.00
14049;DHT22;7099;53.922;10.728;2023-09-12T09:13:40;23.00;90.50
14049;DHT22;7099;53.922;10.728;2023-09-12T09:17:46;23.00;89.40
14049;DHT22;7099;53.922;10.728;2023-09-12T09:22:05;22.90;88.20
14049;DHT22;7099;53.922;10.728;2023-09-12T09:26:11;22.90;89.10
14049;DHT22;7099;53.922;10.728;2023-09-12T09:30:16;23.00;88.10
14049;DHT22;7099;53.922;10.728;2023-09-12T09:34:24;23.20;90.00
14049;DHT22;7099;53.922;10.728;2023-09-12T09:38:30;23.30;88.20
14049;DHT22;7099;53.922;10.728;2023-09-12T09:42:35;23.30;87.30
14049;DHT22;7099;53.922;10.728;2023-09-12T09:46:44;23.40;87.10
14049;DHT22;7099;53.922;10.728;2023-09-12T09:50:51;23.40;87.80
14049;DHT22;7099;53.922;10.728;2023-09-12T09:54:57;23.50;87.70
14049;DHT22;7099;53.922;10.728;2023-09-12T09:59:03;23.60;86.70
14049;DHT22;7099;53.922;10.728;2023-09-12T10:03:10;23.60;84.90
14049;DHT22;7099;53.922;10.728;2023-09-12T10:07:16;23.60;85.10
14049;DHT22;7099;53.922;10.728;2023-09-12T10:11:24;23.60;86.00
14049;DHT22;7099;53.922;10.728;2023-09-12T10:15:32;23.70;84.50
14049;DHT22;7099;53.922;10.728;2023-09-12T10:19:49;23.80;84.10
14049;DHT22;7099;53.922;10.728;2023-09-12T10:23:58;23.90;84.40
14049;DHT22;7099;53.922;10.728;2023-09-12T10:28:05;24.00;84.40
14049;DHT22;7099;53.922;10.728;2023-09-12T10:32:14;24.20;81.70
14049;DHT22;7099;53.922;10.728;2023-09-12T10:36:21;24.30;82.00
14049;DHT22;7099;53.922;10.728;2023-09-12T10:40:28;24.30;80.90
14049;DHT22;7099;53.922;10.728;2023-09-12T10:44:35;24.30;80.80
14049;DHT22;7099;53.922;10.728;2023-09-12T10:48:41;24.30;79.50
14049;DHT22;7099;53.922;10.728;2023-09-12T10:52:47;24.30;79.50
14049;DHT22;7099;53.922;10.728;2023-09-12T10:57:06;24.40;80.30
14049;DHT22;7099;53.922;10.728;2023-09-12T11:01:25;24.50;79.30
14049;DHT22;7099;53.922;10.728;2023-09-12T11:09:39;24.90;79.50
14049;DHT22;7099;53.922;10.728;2023-09-12T11:13:44;24.90;77.50
14049;DHT22;7099;53.922;10.728;2023-09-12T11:18:11;25.00;77.40
14049;DHT22;7099;53.922;10.728;2023-09-12T11:22:24;25.00;77.20
14049;DHT22;7099;53.922;10.728;2023-09-12T11:26:31;25.00;77.40
14049;DHT22;7099;53.922;10.728;2023-09-12T11:30:37;25.00;77.40
14049;DHT22;7099;53.922;10.728;2023-09-12T11:35:05;25.00;76.50
14049;DHT22;7099;53.922;10.728;2023-09-12T11:39:27;25.00;76.20
14049;DHT22;7099;53.922;10.728;2023-09-12T11:43:37;25.20;78.30
14049;DHT22;7099;53.922;10.728;2023-09-12T11:47:44;25.20;76.90
14049;DHT22;7099;53.922;10.728;2023-09-12T11:51:52;25.20;77.40
14049;DHT22;7099;53.922;10.728;2023-09-12T11:55:59;25.30;75.10
14049;DHT22;7099;53.922;10.728;2023-09-12T12:00:05;25.30;76.10
14049;DHT22;7099;53.922;10.728;2023-09-12T12:04:13;25.40;77.00
14049;DHT22;7099;53.922;10.728;2023-09-12T12:08:20;25.50;76.00
14049;DHT22;7099;53.922;10.728;2023-09-12T12:12:36;25.00;77.60
14049;DHT22;7099;53.922;10.728;2023-09-12T12:16:43;24.80;78.40
14049;DHT22;7099;53.922;10.728;2023-09-12T12:20:49;24.60;79.30
14049;DHT22;7099;53.922;10.728;2023-09-12T12:24:54;24.50;79.20
14049;DHT22;7099;53.922;10.728;2023-09-12T12:29:01;24.40;79.10
14049;DHT22;7099;53.922;10.728;2023-09-12T12:33:08;24.40;79.60
14049;DHT22;7099;53.922;10.728;2023-09-12T12:37:36;24.40;79.90
14049;DHT22;7099;53.922;10.728;2023-09-12T12:41:42;24.30;80.00
14049;DHT22;7099;53.922;10.728;2023-09-12T12:45:57;24.30;80.60
14049;DHT22;7099;53.922;10.728;2023-09-12T12:50:08;24.30;80.90
14049;DHT22;7099;53.922;10.728;2023-09-12T12:54:25;24.30;80.90
14049;DHT22;7099;53.922;10.728;2023-09-12T12:58:31;24.20;80.30
14049;DHT22;7099;53.922;10.728;2023-09-12T13:02:40;24.20;81.00
14049;DHT22;7099;53.922;10.728;2023-09-12T13:06:47;24.30;81.20
14049;DHT22;7099;53.922;10.728;2023-09-12T13:10:53;24.20;81.70
14049;DHT22;7099;53.922;10.728;2023-09-12T13:14:58;24.30;82.20
14049;DHT22;7099;53.922;10.728;2023-09-12T13:19:04;24.30;82.90
14049;DHT22;7099;53.922;10.728;2023-09-12T13:23:10;24.30;83.70
14049;DHT22;7099;53.922;10.728;2023-09-12T13:27:15;24.30;83.60
14049;DHT22;7099;53.922;10.728;2023-09-12T13:31:20;24.20;84.40
14049;DHT22;7099;53.922;10.728;2023-09-12T13:35:26;24.20;85.40
14049;DHT22;7099;53.922;10.728;2023-09-12T13:39:32;24.30;85.60
14049;DHT22;7099;53.922;10.728;2023-09-12T13:43:38;24.30;85.80
14049;DHT22;7099;53.922;10.728;2023-09-12T13:47:43;24.30;86.10
14049;DHT22;7099;53.922;10.728;2023-09-12T13:51:49;24.30;85.60
14049;DHT22;7099;53.922;10.728;2023-09-12T13:55:55;24.30;86.10
14049;DHT22;7099;53.922;10.728;2023-09-12T14:00:02;24.30;86.70
14049;DHT22;7099;53.922;10.728;2023-09-12T14:04:08;24.30;87.00
14049;DHT22;7099;53.922;10.728;2023-09-12T14:08:15;24.30;87.10
14049;DHT22;7099;53.922;10.728;2023-09-12T14:12:21;24.30;86.60
14049;DHT22;7099;53.922;10.728;2023-09-12T14:16:33;24.50;86.70
14049;DHT22;7099;53.922;10.728;2023-09-12T14:20:38;24.60;87.20
14049;DHT22;7099;53.922;10.728;2023-09-12T14:24:44;24.70;86.60
14049;DHT22;7099;53.922;10.728;2023-09-12T14:28:50;24.90;87.20
14049;DHT22;7099;53.922;10.728;2023-09-12T14:32:56;24.90;85.80
14049;DHT22;7099;53.922;10.728;2023-09-12T14:37:01;24.90;85.50
14049;DHT22;7099;53.922;10.728;2023-09-12T14:41:11;24.90;85.50
14049;DHT22;7099;53.922;10.728;2023-09-12T14:45:17;24.90;85.60
14049;DHT22;7099;53.922;10.728;2023-09-12T14:49:23;24.90;85.10
14049;DHT22;7099;53.922;10.728;2023-09-12T14:53:28;25.00;85.00
14049;DHT22;7099;53.922;10.728;2023-09-12T14:57:34;25.20;83.90
14049;DHT22;7099;53.922;10.728;2023-09-12T15:01:40;25.20;83.60
14049;DHT22;7099;53.922;10.728;2023-09-12T15:05:45;25.20;83.90
14049;DHT22;7099;53.922;10.728;2023-09-12T15:09:51;25.30;84.00
14049;DHT22;7099;53.922;10.728;2023-09-12T15:13:56;25.30;83.20
14049;DHT22;7099;53.922;10.728;2023-09-12T15:18:01;25.20;83.50
14049;DHT22;7099;53.922;10.728;2023-09-12T15:22:08;25.20;82.80
14049;DHT22;7099;53.922;10.728;2023-09-12T15:26:14;25.70;80.90
14049;DHT22;7099;53.922;10.728;2023-09-12T15:30:20;25.90;81.50
14049;DHT22;7099;53.922;10.728;2023-09-12T15:34:26;25.60;82.20
14049;DHT22;7099;53.922;10.728;2023-09-12T15:38:32;25.40;82.60
14049;DHT22;7099;53.922;10.728;2023-09-12T15:42:37;25.40;82.50
14049;DHT22;7099;53.922;10.728;2023-09-12T15:46:43;25.20;82.50
14049;DHT22;7099;53.922;10.728;2023-09-12T15:50:49;25.00;83.00
14049;DHT22;7099;53.922;10.728;2023-09-12T15:54:54;24.90;82.80
14049;DHT22;7099;53.922;10.728;2023-09-12T15:59:00;24.90;83.10
14049;DHT22;7099;53.922;10.728;2023-09-12T16:03:05;24.90;82.90
14049;DHT22;7099;53.922;10.728;2023-09-12T16:07:11;24.90;83.20
14049;DHT22;7099;53.922;10.728;2023-09-12T16:11:17;25.00;82.90
14049;DHT22;7099;53.922;10.728;2023-09-12T16:15:22;25.10;82.90
14049;DHT22;7099;53.922;10.728;2023-09-12T16:19:28;25.10;82.70
14049;DHT22;7099;53.922;10.728;2023-09-12T16:23:33;25.00;82.60
14049;DHT22;7099;53.922;10.728;2023-09-12T16:27:39;24.90;82.70
14049;DHT22;7099;53.922;10.728;2023-09-12T16:31:44;24.90;82.80
14049;DHT22;7099;53.922;10.728;2023-09-12T16:35:50;24.80;82.80
14049;DHT22;7099;53.922;10.728;2023-09-12T16:39:56;24.80;82.90
14049;DHT22;7099;53.922;10.728;2023-09-12T16:44:02;24.70;82.80
14049;DHT22;7099;53.922;10.728;2023-09-12T16:48:08;24.60;83.00
14049;DHT22;7099;53.922;10.728;2023-09-12T16:52:13;24.60;83.20
14049;DHT22;7099;53.922;10.728;2023-09-12T16:56:19;24.50;83.20
14049;DHT22;7099;53.922;10.728;2023-09-12T17:00:24;24.40;83.20
14049;DHT22;7099;53.922;10.728;2023-09-12T17:04:30;24.30;83.50
14049;DHT22;7099;53.922;10.728;2023-09-12T17:08:36;24.30;83.80
14049;DHT22;7099;53.922;10.728;2023-09-12T17:12:41;24.20;83.90
14049;DHT22;7099;53.922;10.728;2023-09-12T17:16:47;24.10;84.10
14049;DHT22;7099;53.922;10.728;2023-09-12T17:20:52;24.00;84.30
14049;DHT22;7099;53.922;10.728;2023-09-12T17:24:58;23.90;84.40
14049;DHT22;7099;53.922;10.728;2023-09-12T17:29:04;23.80;84.50
14049;DHT22;7099;53.922;10.728;2023-09-12T17:33:09;23.70;84.70
14049;DHT22;7099;53.922;10.728;2023-09-12T17:37:16;23.60;84.80
14049;DHT22;7099;53.922;10.728;2023-09-12T17:41:23;23.50;84.90
14049;DHT22;7099;53.922;10.728;2023-09-12T17:45:30;23.40;85.10
14049;DHT22;7099;53.922;10.728;2023-09-12T17:49:37;23.30;85.20
14049;DHT22;7099;53.922;10.728;2023-09-12T17:53:42;23.20;85.30
14049;DHT22;7099;53.922;10.728;2023-09-12T17:57:49;23.20;85.40
14049;DHT22;7099;53.922;10.728;2023-09-12T18:01:55;23.10;85.60
14049;DHT22;7099;53.922;10.728;2023-09-12T18:06:02;23.00;85.80
14049;DHT22;7099;53.922;10.728;2023-09-12T18:10:08;22.90;86.00
14049;DHT22;7099;53.922;10.728;2023-09-12T18:14:14;22.80;86.30
14049;DHT22;7099;53.922;10.728;2023-09-12T18:18:19;22.70;86.60
14049;DHT22;7099;53.922;10.728;2023-09-12T18:22:25;22.60;86.70
14049;DHT22;7099;53.922;10.728;2023-09-12T18:26:31;22.50;86.60
14049;DHT22;7099;53.922;10.728;2023-09-12T18:30:37;22.40;86.80
14049;DHT22;7099;53.922;10.728;2023-09-12T18:34:42;22.30;86.90
14049;DHT22;7099;53.922;10.728;2023-09-12T18:38:48;22.20;87.00
14049;DHT22;7099;53.922;10.728;2023-09-12T18:42:54;22.10;87.10
14049;DHT22;7099;53.922;10.728;2023-09-12T18:47:00;22.10;87.40
14049;DHT22;7099;53.922;10.728;2023-09-12T18:51:06;21.90;87.20
14049;DHT22;7099;53.922;10.728;2023-09-12T18:55:12;21.90;87.10
14049;DHT22;7099;53.922;10.728;2023-09-12T18:59:17;21.80;87.40
14049;DHT22;7099;53.922;10.728;2023-09-12T19:03:25;21.70;87.70
14049;DHT22;7099;53.922;10.728;2023-09-12T19:07:31;21.60;88.00
14049;DHT22;7099;53.922;10.728;2023-09-12T19:11:37;21.60;88.40
14049;DHT22;7099;53.922;10.728;2023-09-12T19:15:42;21.50;88.30
14049;DHT22;7099;53.922;10.728;2023-09-12T19:19:49;21.40;88.20
14049;DHT22;7099;53.922;10.728;2023-09-12T19:23:54;21.40;88.40
14049;DHT22;7099;53.922;10.728;2023-09-12T19:28:00;21.30;88.80
14049;DHT22;7099;53.922;10.728;2023-09-12T19:32:13;21.20;88.90
14049;DHT22;7099;53.922;10.728;2023-09-12T19:36:19;21.20;88.90
14049;DHT22;7099;53.922;10.728;2023-09-12T19:40:24;21.10;89.10
14049;DHT22;7099;53.922;10.728;2023-09-12T19:44:32;21.00;89.20
14049;DHT22;7099;53.922;10.728;2023-09-12T19:48:38;21.00;89.30
14049;DHT22;7099;53.922;10.728;2023-09-12T19:52:43;20.90;89.00
14049;DHT22;7099;53.922;10.728;2023-09-12T19:56:49;20.80;89.20
14049;DHT22;7099;53.922;10.728;2023-09-12T20:00:58;20.70;89.00
14049;DHT22;7099;53.922;10.728;2023-09-12T20:05:06;20.70;89.40
14049;DHT22;7099;53.922;10.728;2023-09-12T20:09:12;21.00;87.80
14049;DHT22;7099;53.922;10.728;2023-09-12T20:13:18;21.20;87.30
14049;DHT22;7099;53.922;10.728;2023-09-12T20:17:24;21.30;87.20
14049;DHT22;7099;53.922;10.728;2023-09-12T20:21:31;21.30;86.70
14049;DHT22;7099;53.922;10.728;2023-09-12T20:25:38;21.20;86.80
14049;DHT22;7099;53.922;10.728;2023-09-12T20:29:44;21.20;86.50
14049;DHT22;7099;53.922;10.728;2023-09-12T20:33:50;21.10;86.20
14049;DHT22;7099;53.922;10.728;2023-09-12T20:37:56;21.10;86.40
14049;DHT22;7099;53.922;10.728;2023-09-12T20:42:02;21.00;86.20
14049;DHT22;7099;53.922;10.728;2023-09-12T20:46:08;21.00;86.80
14049;DHT22;7099;53.922;10.728;2023-09-12T20:50:15;20.90;86.40
14049;DHT22;7099;53.922;10.728;2023-09-12T20:54:23;20.90;86.30
14049;DHT22;7099;53.922;10.728;2023-09-12T20:58:28;20.90;86.00
14049;DHT22;7099;53.922;10.728;2023-09-12T21:02:34;20.80;85.60
14049;DHT22;7099;53.922;10.728;2023-09-12T21:06:40;20.70;86.10
14049;DHT22;7099;53.922;10.728;2023-09-12T21:10:45;20.70;86.10
14049;DHT22;7099;53.922;10.728;2023-09-12T21:14:52;20.60;86.60
14049;DHT22;7099;53.922;10.728;2023-09-12T21:18:57;20.60;85.60
14049;DHT22;7099;53.922;10.728;2023-09-12T21:23:03;20.50;85.20
14049;DHT22;7099;53.922;10.728;2023-09-12T21:27:09;20.50;85.90
14049;DHT22;7099;53.922;10.728;2023-09-12T21:31:14;20.40;86.10
14049;DHT22;7099;53.922;10.728;2023-09-12T21:35:20;20.40;86.60
14049;DHT22;7099;53.922;10.728;2023-09-12T21:39:26;20.30;86.90
14049;DHT22;7099;53.922;10.728;2023-09-12T21:43:31;20.30;86.60
14049;DHT22;7099;53.922;10.728;2023-09-12T21:47:37;20.20;86.60
14049;DHT22;7099;53.922;10.728;2023-09-12T21:51:43;20.20;87.00
14049;DHT22;7099;53.922;10.728;2023-09-12T21:55:49;20.20;86.10
14049;DHT22;7099;53.922;10.728;2023-09-12T21:59:54;20.10;86.20
14049;DHT22;7099;53.922;10.728;2023-09-12T22:04:01;20.10;87.30
14049;DHT22;7099;53.922;10.728;2023-09-12T22:08:06;20.00;87.20
14049;DHT22;7099;53.922;10.728;2023-09-12T22:12:12;20.00;87.60
14049;DHT22;7099;53.922;10.728;2023-09-12T22:16:17;19.90;88.10
14049;DHT22;7099;53.922;10.728;2023-09-12T22:20:23;19.90;88.10
14049;DHT22;7099;53.922;10.728;2023-09-12T22:24:29;19.90;88.10
14049;DHT22;7099;53.922;10.728;2023-09-12T22:28:34;19.90;88.50
14049;DHT22;7099;53.922;10.728;2023-09-12T22:32:40;19.80;88.10
14049;DHT22;7099;53.922;10.728;2023-09-12T22:36:45;19.80;87.70
14049;DHT22;7099;53.922;10.728;2023-09-12T22:40:51;19.80;87.10
14049;DHT22;7099;53.922;10.728;2023-09-12T22:44:57;19.70;86.30
14049;DHT22;7099;53.922;10.728;2023-09-12T22:49:02;19.70;86.60
14049;DHT22;7099;53.922;10.728;2023-09-12T22:53:08;19.60;86.50
14049;DHT22;7099;53.922;10.728;2023-09-12T22:57:14;19.60;87.00
14049;DHT22;7099;53.922;10.728;2023-09-12T23:01:19;19.50;88.40
14049;DHT22;7099;53.922;10.728;2023-09-12T23:05:25;19.50;88.00
14049;DHT22;7099;53.922;10.728;2023-09-12T23:09:30;19.50;87.00
14049;DHT22;7099;53.922;10.728;2023-09-12T23:13:35;19.50;86.70
14049;DHT22;7099;53.922;10.728;2023-09-12T23:17:41;19.50;87.40
14049;DHT22;7099;53.922;10.728;2023-09-12T23:21:46;19.40;87.60
14049;DHT22;7099;53.922;10.728;2023-09-12T23:25:55;19.40;87.60
14049;DHT22;7099;53.922;10.728;2023-09-12T23:30:00;19.40;88.30
14049;DHT22;7099;53.922;10.728;2023-09-12T23:34:09;19.40;89.00
14049;DHT22;7099;53.922;10.728;2023-09-12T23:38:14;19.40;89.20
14049;DHT22;7099;53.922;10.728;2023-09-12T23:42:19;19.40;89.70
14049;DHT22;7099;53.922;10.728;2023-09-12T23:46:25;19.40;90.10
14049;DHT22;7099;53.922;10.728;2023-09-12T23:50:31;19.40;89.70
14049;DHT22;7099;53.922;10.728;2023-09-12T23:54:36;19.30;88.90
14049;DHT22;7099;53.922;10.728;2023-09-12T23:58:42;19.40;90.20
